logo
Rechercher aéroport 
image banner adimage banner adimage banner ad
image banner ad

CSN2 - Kruger

Situé à Montreal, Canada

ICAO - CSN2, IATA -

Données fournies par Airmate  

Information générale

Coordonnées: N45°30'25" W73°38'9"
Élévation : 194 feet MSL.
Variation magnétique : -14.6653° East
Voir autres Aéroports à Quebec

Données opérationnelles

Special qualification required
Heure actuelle UTC:
Heure actuelle locale:
METAR: CYUL 052238Z 01009KT 10SM -SN OVC047 M10/M13 A2987 RMK SC8 SLP119
TAF: TAF CYUL 062340Z 0700/0724 VRB03KT P6SM SKC FM070900 04008KT P6SM FEW008 FM071500 06010KT P6SM BKN200 FM072000 10012KT P6SM OVC100 FM072200 15012G22KT 1 1/2SM -SN BKN025 OVC070 PROB30 0722/0724 2 1/2SM -SN -FZDZ OVC020 RMK NXT FCST BY 070300Z
Voir NOTAMs / SUP AIP / TFR affectant cet aéroport [VIEW]
Fréquences de communication: [VIEW]

Pistes:

Coordonnées de l'aéroport

Adresse: Montreal Canada

Vue satellite de CSN2